CPA930 RPLL-VHHH
Flight info
| Callsign | CPA930 |
|---|---|
| Flight time | 1h 37m |
| Altitude | 38000 |
| Route | CAB2R CAB A461 NOMAN V533 BETTY BETTY2G |
| Aircraft | A346/H-SDE2E3FGHIJ3J4J5M1RWXY/LB1D1 |
Departure
| Time | 2026-05-07 06:15 |
|---|---|
| Airport | Ninoy Aquino International Airport (RPLL) |
Arrival
| Time | 2026-05-07 07:52 |
|---|---|
| Airport | Hong Kong International Airport (VHHH) |
| Time | Latitude | Longitude | Altitude | Speed | Heading |
|---|---|---|---|---|---|
| 2026-05-07 05:48 | 14.50320 | 121.00415 | 66 ft | 0 kts | 20° |
| 2026-05-07 06:06 | 14.50319 | 121.00414 | 66 ft | 1 kts | 20° |
| 2026-05-07 06:06 | 14.50311 | 121.00411 | 70 ft | 3 kts | 16° |
| 2026-05-07 06:06 | 14.50287 | 121.00406 | 71 ft | 2 kts | 14° |
| 2026-05-07 06:06 | 14.50285 | 121.00405 | 68 ft | 1 kts | 14° |
| 2026-05-07 06:07 | 14.50296 | 121.00405 | 67 ft | 3 kts | 351° |
| 2026-05-07 06:07 | 14.50288 | 121.00409 | 75 ft | 3 kts | 338° |
| 2026-05-07 06:07 | 14.50264 | 121.00415 | 69 ft | 3 kts | 360° |
| 2026-05-07 06:07 | 14.50255 | 121.00414 | 77 ft | 3 kts | 19° |
| 2026-05-07 06:08 | 14.50249 | 121.00412 | 73 ft | 2 kts | 54° |
| 2026-05-07 06:08 | 14.50276 | 121.00464 | 77 ft | 1 kts | 240° |
| 2026-05-07 06:08 | 14.50277 | 121.00466 | 68 ft | 0 kts | 240° |
| 2026-05-07 06:11 | 14.50274 | 121.00461 | 77 ft | 4 kts | 240° |
| 2026-05-07 06:12 | 14.50241 | 121.00403 | 72 ft | 15 kts | 238° |
| 2026-05-07 06:12 | 14.50190 | 121.00343 | 69 ft | 8 kts | 191° |
| 2026-05-07 06:12 | 14.50124 | 121.00325 | 68 ft | 11 kts | 216° |
| 2026-05-07 06:12 | 14.50078 | 121.00256 | 68 ft | 13 kts | 243° |
| 2026-05-07 06:13 | 14.50030 | 121.00167 | 68 ft | 16 kts | 241° |
| 2026-05-07 06:13 | 14.49970 | 121.00061 | 72 ft | 18 kts | 238° |
| 2026-05-07 06:13 | 14.49893 | 120.99976 | 69 ft | 12 kts | 184° |
| 2026-05-07 06:13 | 14.49820 | 121.00018 | 68 ft | 12 kts | 115° |
| 2026-05-07 06:14 | 14.49827 | 121.00081 | 78 ft | 2 kts | 59° |
| 2026-05-07 06:14 | 14.49828 | 121.00083 | 78 ft | 3 kts | 59° |
| 2026-05-07 06:14 | 14.49969 | 121.00330 | 71 ft | 76 kts | 60° |
| 2026-05-07 06:14 | 14.50338 | 121.00999 | 82 ft | 139 kts | 60° |
| 2026-05-07 06:15 | 14.50915 | 121.02022 | 155 ft | 183 kts | 60° |
| 2026-05-07 06:15 | 14.51591 | 121.03191 | 721 ft | 191 kts | 62° |
| 2026-05-07 06:15 | 14.52242 | 121.04368 | 1597 ft | 187 kts | 63° |
| 2026-05-07 06:15 | 14.52888 | 121.05554 | 2216 ft | 192 kts | 63° |
| 2026-05-07 06:16 | 14.53569 | 121.06804 | 2537 ft | 207 kts | 62° |
| 2026-05-07 06:16 | 14.54309 | 121.08156 | 2873 ft | 223 kts | 61° |
| 2026-05-07 06:16 | 14.55112 | 121.09613 | 3175 ft | 243 kts | 60° |
| 2026-05-07 06:16 | 14.55983 | 121.11178 | 3566 ft | 260 kts | 60° |
| 2026-05-07 06:17 | 14.57149 | 121.12640 | 4195 ft | 269 kts | 37° |
| 2026-05-07 06:17 | 14.58840 | 121.13405 | 4974 ft | 273 kts | 11° |
| 2026-05-07 06:17 | 14.60755 | 121.13466 | 5773 ft | 278 kts | 358° |
| 2026-05-07 06:17 | 14.62694 | 121.13248 | 6548 ft | 283 kts | 351° |
| 2026-05-07 06:18 | 14.64545 | 121.12502 | 7292 ft | 291 kts | 328° |
| 2026-05-07 06:18 | 14.66199 | 121.11273 | 8092 ft | 294 kts | 323° |
| 2026-05-07 06:18 | 14.67823 | 121.09964 | 8831 ft | 298 kts | 323° |
| 2026-05-07 06:18 | 14.69459 | 121.08659 | 9566 ft | 302 kts | 323° |
| 2026-05-07 06:19 | 14.71139 | 121.07353 | 10297 ft | 305 kts | 324° |
| 2026-05-07 06:19 | 14.72882 | 121.06021 | 10803 ft | 319 kts | 324° |
| 2026-05-07 06:19 | 14.74728 | 121.04630 | 11159 ft | 337 kts | 325° |
| 2026-05-07 06:19 | 14.76659 | 121.03187 | 11499 ft | 355 kts | 325° |
| 2026-05-07 06:20 | 14.78710 | 121.01659 | 11853 ft | 371 kts | 325° |
| 2026-05-07 06:20 | 14.80825 | 121.00088 | 12487 ft | 378 kts | 325° |
| 2026-05-07 06:20 | 14.82963 | 120.98500 | 13288 ft | 380 kts | 325° |
| 2026-05-07 06:20 | 14.85114 | 120.96905 | 14048 ft | 384 kts | 325° |
| 2026-05-07 06:21 | 14.87223 | 120.95341 | 14748 ft | 387 kts | 325° |
| 2026-05-07 06:21 | 14.89456 | 120.93686 | 15449 ft | 391 kts | 325° |
| 2026-05-07 06:21 | 14.91644 | 120.92063 | 16118 ft | 395 kts | 325° |
| 2026-05-07 06:21 | 14.93910 | 120.90382 | 16775 ft | 399 kts | 325° |
| 2026-05-07 06:22 | 14.96139 | 120.88728 | 17399 ft | 402 kts | 325° |
| 2026-05-07 06:22 | 15.00720 | 120.85329 | 18620 ft | 409 kts | 324° |
| 2026-05-07 06:22 | 15.03057 | 120.83594 | 19202 ft | 413 kts | 324° |
| 2026-05-07 06:23 | 15.05398 | 120.81855 | 19738 ft | 417 kts | 324° |
| 2026-05-07 06:23 | 15.07757 | 120.80102 | 20297 ft | 420 kts | 324° |
| 2026-05-07 06:23 | 15.10138 | 120.78333 | 20830 ft | 424 kts | 324° |
| 2026-05-07 06:23 | 15.12539 | 120.76550 | 21351 ft | 427 kts | 324° |
| 2026-05-07 06:24 | 15.14958 | 120.74752 | 21846 ft | 430 kts | 324° |
| 2026-05-07 06:24 | 15.17393 | 120.72941 | 22352 ft | 434 kts | 324° |
| 2026-05-07 06:24 | 15.19847 | 120.71115 | 22826 ft | 437 kts | 324° |
| 2026-05-07 06:24 | 15.22322 | 120.69274 | 23292 ft | 440 kts | 324° |
| 2026-05-07 06:25 | 15.24784 | 120.67441 | 23757 ft | 443 kts | 324° |
| 2026-05-07 06:25 | 15.27257 | 120.65600 | 24195 ft | 446 kts | 324° |
| 2026-05-07 06:25 | 15.29791 | 120.63712 | 24630 ft | 449 kts | 324° |
| 2026-05-07 06:25 | 15.32324 | 120.61826 | 25083 ft | 452 kts | 324° |
| 2026-05-07 06:26 | 15.34835 | 120.59954 | 25531 ft | 454 kts | 324° |
| 2026-05-07 06:26 | 15.37364 | 120.58068 | 25992 ft | 456 kts | 324° |
| 2026-05-07 06:26 | 15.39924 | 120.56161 | 26438 ft | 458 kts | 324° |
| 2026-05-07 06:26 | 15.42489 | 120.54247 | 26894 ft | 460 kts | 324° |
| 2026-05-07 06:27 | 15.45087 | 120.52309 | 27327 ft | 462 kts | 324° |
| 2026-05-07 06:27 | 15.47692 | 120.50366 | 27757 ft | 465 kts | 324° |
| 2026-05-07 06:27 | 15.50303 | 120.48416 | 28186 ft | 467 kts | 324° |
| 2026-05-07 06:27 | 15.52937 | 120.46449 | 28625 ft | 469 kts | 324° |
| 2026-05-07 06:28 | 15.55593 | 120.44465 | 29064 ft | 470 kts | 324° |
| 2026-05-07 06:28 | 15.58238 | 120.42488 | 29486 ft | 472 kts | 324° |
| 2026-05-07 06:28 | 15.60900 | 120.40498 | 29884 ft | 475 kts | 324° |
| 2026-05-07 06:28 | 15.63493 | 120.38559 | 30365 ft | 474 kts | 323° |
| 2026-05-07 06:29 | 15.66167 | 120.36559 | 30977 ft | 471 kts | 323° |
| 2026-05-07 06:29 | 15.68812 | 120.34582 | 31550 ft | 469 kts | 323° |
| 2026-05-07 06:29 | 15.71401 | 120.32645 | 32042 ft | 469 kts | 323° |
| 2026-05-07 06:29 | 15.74008 | 120.30693 | 32511 ft | 468 kts | 323° |
| 2026-05-07 06:30 | 15.76602 | 120.28751 | 32957 ft | 468 kts | 323° |
| 2026-05-07 06:30 | 15.79186 | 120.26815 | 33425 ft | 467 kts | 323° |
| 2026-05-07 06:30 | 15.81803 | 120.24854 | 33896 ft | 466 kts | 323° |
| 2026-05-07 06:30 | 15.84414 | 120.22897 | 34327 ft | 466 kts | 323° |
| 2026-05-07 06:31 | 15.87015 | 120.20945 | 34752 ft | 465 kts | 323° |
| 2026-05-07 06:31 | 15.89584 | 120.19017 | 35181 ft | 464 kts | 323° |
| 2026-05-07 06:31 | 15.92189 | 120.17062 | 35641 ft | 462 kts | 323° |
| 2026-05-07 06:31 | 15.94747 | 120.15141 | 36062 ft | 461 kts | 323° |
| 2026-05-07 06:32 | 15.97301 | 120.13223 | 36444 ft | 460 kts | 323° |
| 2026-05-07 06:32 | 15.99896 | 120.11273 | 36766 ft | 461 kts | 323° |
| 2026-05-07 06:32 | 16.02499 | 120.09317 | 37111 ft | 461 kts | 323° |
| 2026-05-07 06:32 | 16.05094 | 120.07367 | 37572 ft | 459 kts | 323° |
| 2026-05-07 06:33 | 16.07679 | 120.05424 | 37909 ft | 458 kts | 323° |
| 2026-05-07 06:33 | 16.10267 | 120.03477 | 37946 ft | 459 kts | 323° |
| 2026-05-07 06:33 | 16.15410 | 119.99607 | 37955 ft | 459 kts | 323° |
| 2026-05-07 06:34 | 16.20583 | 119.95712 | 37958 ft | 459 kts | 323° |
| 2026-05-07 06:34 | 16.25747 | 119.91821 | 37956 ft | 458 kts | 323° |
| 2026-05-07 06:35 | 16.30920 | 119.87920 | 37952 ft | 458 kts | 323° |
| 2026-05-07 06:35 | 16.36087 | 119.84021 | 37960 ft | 458 kts | 323° |
| 2026-05-07 06:36 | 16.41211 | 119.80153 | 37952 ft | 458 kts | 323° |
| 2026-05-07 06:36 | 16.46400 | 119.76232 | 37960 ft | 458 kts | 323° |
| 2026-05-07 06:37 | 16.51567 | 119.72326 | 37956 ft | 458 kts | 323° |
| 2026-05-07 06:37 | 16.56704 | 119.68440 | 37960 ft | 458 kts | 323° |
| 2026-05-07 06:38 | 16.61870 | 119.64529 | 37952 ft | 457 kts | 323° |
| 2026-05-07 06:38 | 16.67019 | 119.60628 | 37960 ft | 457 kts | 323° |
| 2026-05-07 06:39 | 16.72169 | 119.56724 | 37962 ft | 457 kts | 323° |
| 2026-05-07 06:39 | 16.77315 | 119.52820 | 37890 ft | 457 kts | 323° |
| 2026-05-07 06:40 | 16.82463 | 119.48914 | 37851 ft | 456 kts | 323° |
| 2026-05-07 06:40 | 16.87570 | 119.45034 | 37849 ft | 456 kts | 323° |
| 2026-05-07 06:41 | 16.92714 | 119.41124 | 37850 ft | 456 kts | 323° |
| 2026-05-07 06:41 | 16.97826 | 119.37235 | 37847 ft | 456 kts | 323° |
| 2026-05-07 06:42 | 17.02950 | 119.33334 | 37846 ft | 456 kts | 323° |
| 2026-05-07 06:42 | 17.08088 | 119.29421 | 37849 ft | 456 kts | 323° |
| 2026-05-07 06:43 | 17.13209 | 119.25517 | 37849 ft | 456 kts | 323° |
| 2026-05-07 06:43 | 17.18337 | 119.21606 | 37849 ft | 456 kts | 323° |
| 2026-05-07 06:44 | 17.23461 | 119.17695 | 37849 ft | 456 kts | 323° |
| 2026-05-07 06:44 | 17.28578 | 119.13787 | 37846 ft | 456 kts | 323° |
| 2026-05-07 06:45 | 17.33703 | 119.09869 | 37846 ft | 456 kts | 323° |
| 2026-05-07 06:45 | 17.38794 | 119.05974 | 37847 ft | 455 kts | 323° |
| 2026-05-07 06:46 | 17.43918 | 119.02051 | 37842 ft | 456 kts | 323° |
| 2026-05-07 06:46 | 17.49045 | 118.98124 | 37848 ft | 455 kts | 323° |
| 2026-05-07 06:47 | 17.54168 | 118.94197 | 37849 ft | 455 kts | 323° |
| 2026-05-07 06:47 | 17.59251 | 118.90298 | 37849 ft | 455 kts | 323° |
| 2026-05-07 06:48 | 17.64363 | 118.86375 | 37847 ft | 455 kts | 323° |
| 2026-05-07 06:48 | 17.69473 | 118.82448 | 37848 ft | 454 kts | 323° |
| 2026-05-07 06:49 | 17.74572 | 118.78528 | 37846 ft | 454 kts | 323° |
| 2026-05-07 06:49 | 17.79633 | 118.74635 | 37849 ft | 454 kts | 323° |
| 2026-05-07 06:50 | 17.83907 | 118.71345 | 37848 ft | 454 kts | 323° |
| 2026-05-07 06:50 | 17.89834 | 118.66778 | 37849 ft | 454 kts | 323° |
| 2026-05-07 06:51 | 17.94072 | 118.63511 | 37848 ft | 454 kts | 323° |
| 2026-05-07 06:51 | 17.99169 | 118.59579 | 37847 ft | 454 kts | 323° |
| 2026-05-07 06:52 | 18.04266 | 118.55645 | 37848 ft | 453 kts | 323° |
| 2026-05-07 06:52 | 18.09345 | 118.51721 | 37849 ft | 452 kts | 323° |
| 2026-05-07 06:53 | 18.14424 | 118.47794 | 37848 ft | 452 kts | 323° |
| 2026-05-07 06:53 | 18.19472 | 118.43888 | 37846 ft | 452 kts | 323° |
| 2026-05-07 06:54 | 18.24546 | 118.39959 | 37856 ft | 452 kts | 323° |
| 2026-05-07 06:54 | 18.29615 | 118.36032 | 37858 ft | 452 kts | 323° |
| 2026-05-07 06:55 | 18.34652 | 118.32126 | 37857 ft | 452 kts | 323° |
| 2026-05-07 06:55 | 18.39720 | 118.28193 | 37855 ft | 452 kts | 323° |
| 2026-05-07 06:56 | 18.44791 | 118.24255 | 37860 ft | 452 kts | 323° |
| 2026-05-07 06:56 | 18.49858 | 118.20317 | 37856 ft | 452 kts | 323° |
| 2026-05-07 06:57 | 18.54930 | 118.16372 | 37858 ft | 452 kts | 323° |
| 2026-05-07 06:57 | 18.59997 | 118.12428 | 37861 ft | 452 kts | 323° |
| 2026-05-07 06:58 | 18.65017 | 118.08518 | 37865 ft | 451 kts | 323° |
| 2026-05-07 06:58 | 18.70078 | 118.04572 | 37864 ft | 451 kts | 323° |
| 2026-05-07 06:59 | 18.75135 | 118.00628 | 37865 ft | 451 kts | 323° |
| 2026-05-07 06:59 | 18.80181 | 117.96689 | 37866 ft | 450 kts | 323° |
| 2026-05-07 07:00 | 18.85189 | 117.92777 | 37864 ft | 450 kts | 323° |
| 2026-05-07 07:00 | 18.90231 | 117.88837 | 37866 ft | 449 kts | 322° |
| 2026-05-07 07:01 | 18.95248 | 117.84911 | 37865 ft | 449 kts | 322° |
| 2026-05-07 07:01 | 19.00249 | 117.80933 | 37863 ft | 449 kts | 320° |
| 2026-05-07 07:02 | 19.04896 | 117.76535 | 37867 ft | 448 kts | 314° |
| 2026-05-07 07:02 | 19.09180 | 117.71737 | 37868 ft | 448 kts | 312° |
| 2026-05-07 07:03 | 19.13378 | 117.66937 | 37866 ft | 447 kts | 312° |
| 2026-05-07 07:03 | 19.17605 | 117.62099 | 37865 ft | 447 kts | 312° |
| 2026-05-07 07:04 | 19.21834 | 117.57261 | 37882 ft | 447 kts | 312° |
| 2026-05-07 07:04 | 19.26061 | 117.52421 | 37864 ft | 447 kts | 312° |
| 2026-05-07 07:05 | 19.30256 | 117.47616 | 37880 ft | 446 kts | 312° |
| 2026-05-07 07:05 | 19.34471 | 117.42783 | 37878 ft | 446 kts | 312° |
| 2026-05-07 07:06 | 19.38684 | 117.37948 | 37871 ft | 446 kts | 312° |
| 2026-05-07 07:06 | 19.42895 | 117.33111 | 37884 ft | 446 kts | 312° |
| 2026-05-07 07:07 | 19.47115 | 117.28261 | 37879 ft | 446 kts | 312° |
| 2026-05-07 07:07 | 19.51289 | 117.23461 | 37871 ft | 446 kts | 312° |
| 2026-05-07 07:08 | 19.55499 | 117.18613 | 37882 ft | 446 kts | 312° |
| 2026-05-07 07:08 | 19.59701 | 117.13772 | 37882 ft | 446 kts | 312° |
| 2026-05-07 07:09 | 19.63911 | 117.08917 | 37879 ft | 446 kts | 312° |
| 2026-05-07 07:09 | 19.68112 | 117.04070 | 37883 ft | 446 kts | 312° |
| 2026-05-07 07:10 | 19.72284 | 116.99250 | 37880 ft | 446 kts | 312° |
| 2026-05-07 07:10 | 19.76486 | 116.94393 | 37886 ft | 446 kts | 312° |
| 2026-05-07 07:11 | 19.80690 | 116.89530 | 37883 ft | 446 kts | 312° |
| 2026-05-07 07:11 | 19.84882 | 116.84677 | 37886 ft | 446 kts | 312° |
| 2026-05-07 07:12 | 19.89083 | 116.79810 | 37883 ft | 446 kts | 311° |
| 2026-05-07 07:12 | 19.93251 | 116.74976 | 37885 ft | 446 kts | 311° |
| 2026-05-07 07:13 | 19.97352 | 116.70007 | 37884 ft | 445 kts | 308° |
| 2026-05-07 07:13 | 20.00959 | 116.64664 | 37886 ft | 444 kts | 302° |
| 2026-05-07 07:14 | 20.04031 | 116.58970 | 37892 ft | 443 kts | 298° |
| 2026-05-07 07:14 | 20.06899 | 116.53175 | 37888 ft | 443 kts | 297° |
| 2026-05-07 07:15 | 20.09761 | 116.47373 | 37886 ft | 443 kts | 297° |
| 2026-05-07 07:15 | 20.12628 | 116.41556 | 37881 ft | 443 kts | 297° |
| 2026-05-07 07:16 | 20.15474 | 116.35781 | 37884 ft | 443 kts | 297° |
| 2026-05-07 07:16 | 20.18359 | 116.29921 | 37886 ft | 443 kts | 297° |
| 2026-05-07 07:17 | 20.21203 | 116.24139 | 37886 ft | 443 kts | 297° |
| 2026-05-07 07:17 | 20.24066 | 116.18312 | 37886 ft | 443 kts | 297° |
| 2026-05-07 07:18 | 20.26929 | 116.12480 | 37885 ft | 443 kts | 297° |
| 2026-05-07 07:18 | 20.29785 | 116.06656 | 37886 ft | 443 kts | 297° |
| 2026-05-07 07:19 | 20.32643 | 116.00819 | 37890 ft | 443 kts | 297° |
| 2026-05-07 07:19 | 20.35493 | 115.94989 | 37894 ft | 443 kts | 297° |
| 2026-05-07 07:20 | 20.38337 | 115.89166 | 37890 ft | 442 kts | 297° |
| 2026-05-07 07:20 | 20.41183 | 115.83336 | 37891 ft | 442 kts | 297° |
| 2026-05-07 07:21 | 20.44027 | 115.77505 | 37894 ft | 442 kts | 297° |
| 2026-05-07 07:21 | 20.46867 | 115.71676 | 37896 ft | 442 kts | 297° |
| 2026-05-07 07:22 | 20.49706 | 115.65843 | 37891 ft | 442 kts | 297° |
| 2026-05-07 07:22 | 20.52586 | 115.60098 | 37895 ft | 442 kts | 300° |
| 2026-05-07 07:23 | 20.55973 | 115.54617 | 37859 ft | 442 kts | 306° |
| 2026-05-07 07:23 | 20.57869 | 115.52023 | 37409 ft | 443 kts | 309° |
| 2026-05-07 07:23 | 20.59905 | 115.49529 | 36521 ft | 450 kts | 312° |
| 2026-05-07 07:24 | 20.62102 | 115.47121 | 35732 ft | 454 kts | 315° |
| 2026-05-07 07:24 | 20.64363 | 115.44746 | 35055 ft | 455 kts | 315° |
| 2026-05-07 07:24 | 20.66626 | 115.42381 | 34394 ft | 456 kts | 315° |
| 2026-05-07 07:24 | 20.68887 | 115.40020 | 33735 ft | 456 kts | 315° |
| 2026-05-07 07:25 | 20.73433 | 115.35270 | 32413 ft | 457 kts | 315° |
| 2026-05-07 07:25 | 20.75704 | 115.32893 | 31746 ft | 458 kts | 315° |
| 2026-05-07 07:25 | 20.77985 | 115.30503 | 31063 ft | 459 kts | 315° |
| 2026-05-07 07:26 | 20.80261 | 115.28117 | 30353 ft | 460 kts | 315° |
| 2026-05-07 07:26 | 20.82546 | 115.25720 | 29658 ft | 460 kts | 314° |
| 2026-05-07 07:26 | 20.84803 | 115.23352 | 29193 ft | 455 kts | 314° |
| 2026-05-07 07:26 | 20.87029 | 115.21013 | 28757 ft | 450 kts | 314° |
| 2026-05-07 07:27 | 20.89261 | 115.18668 | 28333 ft | 446 kts | 314° |
| 2026-05-07 07:27 | 20.91463 | 115.16350 | 27887 ft | 441 kts | 314° |
| 2026-05-07 07:27 | 20.93638 | 115.14061 | 27440 ft | 437 kts | 314° |
| 2026-05-07 07:27 | 20.95791 | 115.11795 | 27007 ft | 433 kts | 314° |
| 2026-05-07 07:28 | 20.97932 | 115.09540 | 26575 ft | 429 kts | 314° |
| 2026-05-07 07:28 | 21.00058 | 115.07299 | 26144 ft | 426 kts | 314° |
| 2026-05-07 07:28 | 21.02159 | 115.05084 | 25720 ft | 422 kts | 314° |
| 2026-05-07 07:28 | 21.04198 | 115.02932 | 25300 ft | 419 kts | 314° |
| 2026-05-07 07:29 | 21.06236 | 115.00781 | 24840 ft | 417 kts | 314° |
| 2026-05-07 07:29 | 21.08294 | 114.98608 | 24388 ft | 415 kts | 314° |
| 2026-05-07 07:29 | 21.10345 | 114.96442 | 23923 ft | 413 kts | 314° |
| 2026-05-07 07:29 | 21.12384 | 114.94288 | 23467 ft | 411 kts | 313° |
| 2026-05-07 07:30 | 21.14415 | 114.92143 | 22999 ft | 408 kts | 313° |
| 2026-05-07 07:30 | 21.16426 | 114.90016 | 22538 ft | 406 kts | 313° |
| 2026-05-07 07:30 | 21.18433 | 114.87895 | 22092 ft | 404 kts | 313° |
| 2026-05-07 07:30 | 21.20431 | 114.85782 | 21643 ft | 402 kts | 313° |
| 2026-05-07 07:31 | 21.22411 | 114.83687 | 21193 ft | 399 kts | 313° |
| 2026-05-07 07:31 | 21.24381 | 114.81602 | 20745 ft | 397 kts | 313° |
| 2026-05-07 07:31 | 21.26340 | 114.79527 | 20297 ft | 395 kts | 313° |
| 2026-05-07 07:31 | 21.28291 | 114.77460 | 19845 ft | 393 kts | 313° |
| 2026-05-07 07:32 | 21.30230 | 114.75405 | 19397 ft | 391 kts | 313° |
| 2026-05-07 07:32 | 21.32161 | 114.73357 | 18949 ft | 389 kts | 313° |
| 2026-05-07 07:32 | 21.34058 | 114.71347 | 18511 ft | 387 kts | 313° |
| 2026-05-07 07:32 | 21.35962 | 114.69326 | 18062 ft | 384 kts | 313° |
| 2026-05-07 07:33 | 21.37859 | 114.67313 | 17618 ft | 382 kts | 313° |
| 2026-05-07 07:33 | 21.39747 | 114.65306 | 17178 ft | 380 kts | 313° |
| 2026-05-07 07:33 | 21.41622 | 114.63314 | 16745 ft | 378 kts | 313° |
| 2026-05-07 07:33 | 21.43489 | 114.61331 | 16298 ft | 376 kts | 313° |
| 2026-05-07 07:34 | 21.45347 | 114.59355 | 15862 ft | 375 kts | 313° |
| 2026-05-07 07:34 | 21.47233 | 114.57425 | 15414 ft | 374 kts | 317° |
| 2026-05-07 07:34 | 21.49389 | 114.55845 | 14974 ft | 375 kts | 329° |
| 2026-05-07 07:34 | 21.51777 | 114.54721 | 14541 ft | 375 kts | 338° |
| 2026-05-07 07:35 | 21.54251 | 114.53848 | 14110 ft | 374 kts | 340° |
| 2026-05-07 07:35 | 21.56733 | 114.53019 | 13677 ft | 372 kts | 340° |
| 2026-05-07 07:35 | 21.58366 | 114.52470 | 13386 ft | 370 kts | 340° |
| 2026-05-07 07:35 | 21.61445 | 114.50909 | 12792 ft | 363 kts | 324° |
| 2026-05-07 07:36 | 21.63384 | 114.49159 | 12663 ft | 366 kts | 313° |
| 2026-05-07 07:36 | 21.64553 | 114.47846 | 12697 ft | 368 kts | 311° |
| 2026-05-07 07:36 | 21.66839 | 114.45183 | 12725 ft | 368 kts | 310° |
| 2026-05-07 07:36 | 21.68012 | 114.43810 | 12739 ft | 368 kts | 310° |
| 2026-05-07 07:37 | 21.70309 | 114.41130 | 12756 ft | 368 kts | 310° |
| 2026-05-07 07:37 | 21.71487 | 114.39761 | 12767 ft | 369 kts | 310° |
| 2026-05-07 07:37 | 21.73234 | 114.37733 | 12492 ft | 369 kts | 310° |
| 2026-05-07 07:37 | 21.74973 | 114.35717 | 12022 ft | 367 kts | 310° |
| 2026-05-07 07:38 | 21.77265 | 114.33063 | 11451 ft | 362 kts | 311° |
| 2026-05-07 07:38 | 21.78419 | 114.31725 | 11162 ft | 359 kts | 311° |
| 2026-05-07 07:38 | 21.80109 | 114.29768 | 10746 ft | 356 kts | 311° |
| 2026-05-07 07:38 | 21.81773 | 114.27841 | 10459 ft | 347 kts | 311° |
| 2026-05-07 07:39 | 21.83382 | 114.25981 | 10367 ft | 333 kts | 311° |
| 2026-05-07 07:39 | 21.84927 | 114.24194 | 10258 ft | 320 kts | 311° |
| 2026-05-07 07:39 | 21.86411 | 114.22476 | 10163 ft | 307 kts | 311° |
| 2026-05-07 07:39 | 21.87843 | 114.20814 | 10064 ft | 295 kts | 311° |
| 2026-05-07 07:40 | 21.89126 | 114.19147 | 9961 ft | 283 kts | 304° |
| 2026-05-07 07:40 | 21.90195 | 114.17375 | 9700 ft | 280 kts | 298° |
| 2026-05-07 07:40 | 21.91151 | 114.15546 | 9367 ft | 279 kts | 297° |
| 2026-05-07 07:40 | 21.92075 | 114.13743 | 9057 ft | 278 kts | 297° |
| 2026-05-07 07:41 | 21.93020 | 114.11897 | 8735 ft | 277 kts | 297° |
| 2026-05-07 07:41 | 21.93949 | 114.10089 | 8435 ft | 276 kts | 297° |
| 2026-05-07 07:41 | 21.94867 | 114.08308 | 8134 ft | 274 kts | 297° |
| 2026-05-07 07:41 | 21.95789 | 114.06520 | 7832 ft | 273 kts | 297° |
| 2026-05-07 07:42 | 21.96725 | 114.04705 | 7531 ft | 271 kts | 297° |
| 2026-05-07 07:42 | 21.97627 | 114.02956 | 7237 ft | 270 kts | 298° |
| 2026-05-07 07:42 | 21.98538 | 114.01191 | 6942 ft | 269 kts | 298° |
| 2026-05-07 07:42 | 21.99450 | 113.99424 | 6652 ft | 268 kts | 298° |
| 2026-05-07 07:43 | 22.00351 | 113.97678 | 6348 ft | 267 kts | 298° |
| 2026-05-07 07:43 | 22.01247 | 113.95939 | 6056 ft | 266 kts | 298° |
| 2026-05-07 07:43 | 22.02146 | 113.94197 | 5764 ft | 265 kts | 297° |
| 2026-05-07 07:43 | 22.03036 | 113.92467 | 5471 ft | 264 kts | 298° |
| 2026-05-07 07:44 | 22.03926 | 113.90739 | 5175 ft | 264 kts | 298° |
| 2026-05-07 07:44 | 22.04814 | 113.89011 | 4878 ft | 263 kts | 298° |
| 2026-05-07 07:44 | 22.05711 | 113.87273 | 4587 ft | 263 kts | 298° |
| 2026-05-07 07:44 | 22.06601 | 113.85549 | 4288 ft | 264 kts | 298° |
| 2026-05-07 07:45 | 22.07483 | 113.83830 | 4115 ft | 257 kts | 298° |
| 2026-05-07 07:45 | 22.08328 | 113.82183 | 4111 ft | 244 kts | 298° |
| 2026-05-07 07:45 | 22.09128 | 113.80628 | 4099 ft | 230 kts | 298° |
| 2026-05-07 07:45 | 22.09889 | 113.79149 | 4085 ft | 224 kts | 298° |
| 2026-05-07 07:46 | 22.10720 | 113.77743 | 3962 ft | 223 kts | 316° |
| 2026-05-07 07:46 | 22.11995 | 113.76805 | 3833 ft | 225 kts | 334° |
| 2026-05-07 07:46 | 22.13411 | 113.76102 | 3610 ft | 223 kts | 338° |
| 2026-05-07 07:46 | 22.14820 | 113.75442 | 3331 ft | 221 kts | 338° |
| 2026-05-07 07:47 | 22.16213 | 113.74777 | 2955 ft | 217 kts | 338° |
| 2026-05-07 07:47 | 22.17562 | 113.74119 | 2625 ft | 209 kts | 338° |
| 2026-05-07 07:47 | 22.18875 | 113.73474 | 2320 ft | 205 kts | 338° |
| 2026-05-07 07:47 | 22.20213 | 113.73169 | 1988 ft | 195 kts | 15° |
| 2026-05-07 07:48 | 22.21409 | 113.73741 | 1945 ft | 187 kts | 31° |
| 2026-05-07 07:48 | 22.22538 | 113.74448 | 1969 ft | 187 kts | 32° |
| 2026-05-07 07:48 | 22.23669 | 113.75153 | 2012 ft | 187 kts | 31° |
| 2026-05-07 07:48 | 22.24775 | 113.75857 | 1815 ft | 183 kts | 43° |
| 2026-05-07 07:49 | 22.25510 | 113.76970 | 1584 ft | 186 kts | 65° |
| 2026-05-07 07:49 | 22.25989 | 113.78289 | 1612 ft | 192 kts | 71° |
| 2026-05-07 07:49 | 22.26398 | 113.79645 | 1588 ft | 187 kts | 72° |
| 2026-05-07 07:49 | 22.26794 | 113.80949 | 1580 ft | 178 kts | 72° |
| 2026-05-07 07:50 | 22.27163 | 113.82122 | 1528 ft | 163 kts | 71° |
| 2026-05-07 07:50 | 22.27531 | 113.83270 | 1348 ft | 161 kts | 71° |
| 2026-05-07 07:50 | 22.27895 | 113.84408 | 1110 ft | 162 kts | 71° |
| 2026-05-07 07:50 | 22.28260 | 113.85553 | 896 ft | 162 kts | 70° |
| 2026-05-07 07:51 | 22.28626 | 113.86693 | 694 ft | 161 kts | 69° |
| 2026-05-07 07:51 | 22.28988 | 113.87825 | 497 ft | 160 kts | 70° |
| 2026-05-07 07:51 | 22.29354 | 113.88947 | 273 ft | 158 kts | 69° |
| 2026-05-07 07:51 | 22.29716 | 113.90064 | 55 ft | 157 kts | 70° |
| 2026-05-07 07:52 | 22.30034 | 113.91047 | 40 ft | 127 kts | 71° |
| 2026-05-07 07:52 | 22.30263 | 113.91787 | 41 ft | 71 kts | 68° |
| 2026-05-07 07:52 | 22.30525 | 113.92148 | 41 ft | 34 kts | 42° |
| 2026-05-07 07:52 | 22.30544 | 113.92168 | 40 ft | 0 kts | 45° |
| 2026-05-07 07:53 | 22.30545 | 113.92168 | 40 ft | 0 kts | 45° |
| 2026-05-07 07:54 | 22.30549 | 113.92173 | 40 ft | 4 kts | 46° |
| 2026-05-07 07:54 | 22.30581 | 113.92224 | 38 ft | 13 kts | 64° |
| 2026-05-07 07:54 | 22.30632 | 113.92368 | 40 ft | 22 kts | 70° |
| 2026-05-07 07:54 | 22.30685 | 113.92532 | 40 ft | 24 kts | 70° |
| 2026-05-07 07:55 | 22.30738 | 113.92690 | 40 ft | 18 kts | 69° |
| 2026-05-07 07:55 | 22.30783 | 113.92783 | 40 ft | 9 kts | 24° |
| 2026-05-07 07:55 | 22.30831 | 113.92781 | 40 ft | 6 kts | 344° |
| 2026-05-07 07:55 | 22.30871 | 113.92769 | 40 ft | 9 kts | 349° |
| 2026-05-07 07:56 | 22.30938 | 113.92772 | 40 ft | 11 kts | 17° |
| 2026-05-07 07:56 | 22.31011 | 113.92807 | 40 ft | 11 kts | 25° |
| 2026-05-07 07:56 | 22.31063 | 113.92834 | 40 ft | 3 kts | 25° |
| 2026-05-07 07:56 | 22.31097 | 113.92851 | 40 ft | 11 kts | 25° |
| 2026-05-07 07:57 | 22.31168 | 113.92904 | 40 ft | 14 kts | 54° |
| 2026-05-07 07:57 | 22.31202 | 113.92979 | 40 ft | 8 kts | 56° |
| 2026-05-07 07:57 | 22.31240 | 113.92992 | 40 ft | 0 kts | 351° |
| 2026-05-07 07:57 | 22.31248 | 113.92990 | 40 ft | 3 kts | 345° |
| 2026-05-07 07:58 | 22.31261 | 113.92986 | 40 ft | 0 kts | 344° |
| 2026-05-07 07:58 | 22.31264 | 113.92985 | 40 ft | 1 kts | 344° |
| 2026-05-07 07:58 | 22.31267 | 113.92984 | 39 ft | 1 kts | 344° |
| 2026-05-07 07:58 | 22.31269 | 113.92984 | 40 ft | 0 kts | 344° |
| 2026-05-07 07:59 | 22.31275 | 113.92982 | 40 ft | 2 kts | 344° |
| 2026-05-07 07:59 | 22.31291 | 113.92977 | 40 ft | 0 kts | 344° |
| 2026-05-07 07:59 | 22.31292 | 113.92977 | 40 ft | 0 kts | 344° |